createdAt,value
2022-10-23T00:01:22.175Z,80.49
2022-10-23T00:05:31.125Z,80.43
2022-10-23T00:09:39.592Z,80.50
2022-10-23T00:13:48.691Z,80.49
2022-10-23T00:17:57.075Z,80.51
2022-10-23T00:22:04.917Z,80.41
2022-10-23T00:26:15.970Z,80.58
2022-10-23T00:30:24.086Z,80.52
2022-10-23T00:34:32.224Z,80.48
2022-10-23T00:38:41.344Z,80.52
2022-10-23T00:42:49.410Z,80.56
2022-10-23T00:46:57.755Z,80.68
2022-10-23T00:51:07.083Z,80.66
2022-10-23T00:55:15.909Z,80.70
2022-10-23T00:59:24.202Z,80.77
2022-10-23T01:03:32.744Z,80.80
2022-10-23T01:07:48.963Z,80.86
2022-10-23T01:12:03.956Z,80.99
2022-10-23T01:16:15.732Z,81.03
2022-10-23T01:20:32.864Z,81.09
2022-10-23T01:24:47.080Z,81.09
2022-10-23T01:28:58.634Z,81.29
2022-10-23T01:33:09.987Z,81.36
2022-10-23T01:37:26.235Z,81.51
2022-10-23T01:41:38.149Z,81.79
2022-10-23T01:45:49.103Z,81.86
2022-10-23T01:49:56.833Z,81.90
2022-10-23T01:54:06.046Z,81.97
2022-10-23T01:58:15.393Z,81.92
2022-10-23T02:02:24.098Z,81.78
2022-10-23T02:06:32.246Z,81.66
2022-10-23T02:10:46.530Z,81.85
2022-10-23T02:14:56.648Z,82.01
2022-10-23T02:19:11.395Z,81.97
2022-10-23T02:23:24.614Z,81.71
2022-10-23T02:27:37.303Z,81.78
2022-10-23T02:31:45.510Z,81.74
2022-10-23T02:35:53.809Z,81.96
2022-10-23T02:40:01.836Z,81.98
2022-10-23T02:44:21.600Z,82.00
2022-10-23T02:48:34.467Z,81.96
2022-10-23T02:52:55.088Z,82.01
2022-10-23T02:57:07.138Z,82.02
2022-10-23T03:01:18.721Z,81.95
2022-10-23T03:05:29.769Z,81.85
2022-10-23T03:09:38.740Z,82.03
2022-10-23T03:13:46.841Z,81.93
2022-10-23T03:17:55.214Z,81.94
2022-10-23T03:22:03.121Z,81.83
2022-10-23T03:26:11.645Z,81.78
2022-10-23T03:30:20.089Z,81.75
2022-10-23T03:34:28.469Z,81.83
2022-10-23T03:38:36.076Z,81.74
2022-10-23T03:42:43.996Z,81.75
2022-10-23T03:46:52.192Z,81.72
2022-10-23T03:50:59.673Z,81.79
2022-10-23T03:55:10.132Z,81.72
2022-10-23T03:59:19.827Z,81.83
2022-10-23T04:03:28.372Z,81.83
2022-10-23T04:07:36.059Z,81.89
2022-10-23T04:11:44.252Z,81.99
2022-10-23T04:15:56.261Z,82.09
2022-10-23T04:20:04.055Z,81.99
2022-10-23T04:24:12.280Z,82.22
2022-10-23T04:28:20.180Z,82.16
2022-10-23T04:32:28.237Z,82.20
2022-10-23T04:36:36.271Z,82.37
2022-10-23T04:40:43.839Z,82.35
2022-10-23T04:44:52.264Z,82.11
2022-10-23T04:49:00.934Z,82.35
2022-10-23T04:53:10.089Z,82.33
2022-10-23T04:57:19.107Z,82.33
2022-10-23T05:01:27.268Z,82.03
2022-10-23T05:05:36.103Z,82.08
2022-10-23T05:09:44.232Z,81.87
2022-10-23T05:13:52.561Z,81.95
2022-10-23T05:18:04.793Z,82.17
2022-10-23T05:22:13.641Z,82.25
2022-10-23T05:26:22.757Z,82.25
2022-10-23T05:30:33.415Z,82.43
2022-10-23T05:34:42.215Z,82.52
2022-10-23T05:38:50.560Z,82.87
2022-10-23T05:42:59.010Z,82.53
2022-10-23T05:47:07.317Z,82.87
2022-10-23T05:51:20.467Z,82.83
2022-10-23T05:55:29.485Z,82.76
2022-10-23T05:59:38.438Z,82.85
2022-10-23T06:03:46.633Z,82.89
2022-10-23T06:07:58.462Z,83.14
2022-10-23T06:12:07.112Z,83.08
2022-10-23T06:16:16.195Z,83.33
2022-10-23T06:20:26.659Z,83.36
2022-10-23T06:24:39.125Z,83.39
2022-10-23T06:28:48.804Z,83.44
2022-10-23T06:33:02.056Z,83.28
2022-10-23T06:37:12.597Z,83.50
2022-10-23T06:41:22.360Z,83.54
2022-10-23T06:45:30.156Z,83.62
2022-10-23T06:49:39.414Z,83.71
2022-10-23T06:53:48.857Z,83.79
2022-10-23T06:57:57.321Z,83.79
2022-10-23T07:02:05.508Z,83.96
2022-10-23T07:06:14.158Z,83.92
2022-10-23T07:10:23.201Z,83.89
2022-10-23T07:14:32.681Z,84.11
2022-10-23T07:18:40.889Z,84.05
2022-10-23T07:22:54.650Z,84.08
2022-10-23T07:27:02.422Z,84.11
2022-10-23T07:31:10.895Z,83.90
2022-10-23T07:35:19.731Z,83.94
2022-10-23T07:39:27.923Z,83.89
2022-10-23T07:43:36.416Z,83.66
2022-10-23T07:47:44.788Z,83.34
2022-10-23T07:51:54.512Z,83.26
2022-10-23T07:56:03.608Z,83.22
2022-10-23T08:00:14.201Z,83.13
2022-10-23T08:04:22.338Z,82.97
2022-10-23T08:08:29.975Z,82.87
2022-10-23T08:12:38.407Z,82.39
2022-10-23T08:16:49.529Z,82.44
2022-10-23T08:21:01.346Z,82.06
2022-10-23T08:25:11.723Z,81.70
2022-10-23T08:29:20.067Z,81.44
2022-10-23T08:33:29.343Z,81.19
2022-10-23T08:37:37.864Z,81.50
2022-10-23T08:41:50.424Z,81.45
2022-10-23T08:46:00.458Z,81.22
2022-10-23T08:50:13.258Z,80.99
2022-10-23T08:54:23.381Z,80.54
2022-10-23T08:58:38.763Z,80.54
2022-10-23T09:02:49.261Z,80.10
2022-10-23T09:07:02.352Z,79.87
2022-10-23T09:11:16.188Z,79.72
2022-10-23T09:15:30.668Z,79.53
2022-10-23T09:19:39.094Z,79.14
2022-10-23T09:23:47.606Z,79.00
2022-10-23T09:28:00.156Z,78.90
2022-10-23T09:32:11.103Z,78.83
2022-10-23T09:36:26.274Z,78.93
2022-10-23T09:40:39.961Z,78.68
2022-10-23T09:44:54.384Z,78.48
2022-10-23T09:49:05.031Z,77.65
2022-10-23T09:53:19.690Z,76.96
2022-10-23T09:57:31.005Z,76.37
2022-10-23T10:01:49.829Z,76.28
2022-10-23T10:06:00.834Z,75.95
2022-10-23T10:10:17.892Z,75.59
2022-10-23T10:14:52.379Z,75.38
2022-10-23T10:19:07.851Z,75.22
2022-10-23T10:23:23.902Z,75.12
2022-10-23T10:27:51.111Z,75.38
2022-10-23T10:32:07.883Z,74.72
2022-10-23T10:36:28.953Z,74.56
2022-10-23T10:40:40.252Z,74.40
2022-10-23T10:45:05.125Z,74.07
2022-10-23T10:49:17.340Z,73.69
2022-10-23T10:53:30.346Z,73.43
2022-10-23T10:57:42.713Z,73.37
2022-10-23T11:01:54.257Z,73.34
2022-10-23T11:06:04.420Z,73.16
2022-10-23T11:10:20.184Z,73.18
2022-10-23T11:14:29.756Z,72.66
2022-10-23T11:18:40.844Z,72.30
2022-10-23T11:22:53.231Z,72.11
2022-10-23T11:27:18.749Z,71.83
2022-10-23T11:31:35.279Z,71.69
2022-10-23T11:35:58.623Z,71.86
2022-10-23T11:40:19.815Z,71.34
2022-10-23T11:44:42.037Z,71.09
2022-10-23T11:48:49.942Z,71.32
2022-10-23T11:53:15.031Z,71.19
2022-10-23T11:57:24.566Z,71.18
2022-10-23T12:01:41.408Z,70.71
2022-10-23T12:05:49.714Z,70.53
2022-10-23T12:09:59.799Z,70.49
2022-10-23T12:14:09.258Z,70.32
2022-10-23T12:18:19.554Z,70.53
2022-10-23T12:27:03.958Z,70.42
2022-10-23T12:31:24.246Z,70.07
2022-10-23T12:35:49.700Z,69.56
2022-10-23T12:39:59.186Z,69.28
2022-10-23T12:44:08.744Z,69.35
2022-10-23T12:48:23.238Z,69.04
2022-10-23T12:52:33.417Z,68.35
2022-10-23T12:56:43.635Z,67.72
2022-10-23T13:01:02.951Z,67.44
2022-10-23T13:05:14.183Z,67.54
2022-10-23T13:09:27.264Z,66.77
2022-10-23T13:13:35.281Z,66.41
2022-10-23T13:17:45.809Z,66.38
2022-10-23T13:21:53.854Z,66.46
2022-10-23T13:26:03.095Z,66.33
2022-10-23T13:30:31.284Z,66.12
2022-10-23T13:34:39.852Z,66.17
2022-10-23T13:38:49.892Z,66.10
2022-10-23T13:42:59.135Z,66.00
2022-10-23T13:47:07.020Z,65.93
2022-10-23T13:51:17.570Z,65.92
2022-10-23T13:55:27.175Z,65.76
2022-10-23T13:59:35.480Z,66.15
2022-10-23T14:03:43.553Z,66.50
2022-10-23T14:07:52.756Z,66.73
2022-10-23T14:12:00.549Z,66.77
2022-10-23T14:16:11.603Z,66.93
2022-10-23T14:20:21.436Z,66.95
2022-10-23T14:24:31.381Z,67.12
2022-10-23T14:28:39.728Z,67.05
2022-10-23T14:32:48.029Z,67.17
2022-10-23T14:37:07.787Z,67.03
2022-10-23T14:41:18.675Z,66.91
2022-10-23T14:45:27.732Z,67.17
2022-10-23T14:49:35.953Z,67.39
2022-10-23T14:53:44.200Z,67.65
2022-10-23T14:57:56.073Z,67.75
2022-10-23T15:02:04.099Z,68.17
2022-10-23T15:06:16.051Z,68.48
2022-10-23T15:10:25.981Z,68.69
2022-10-23T15:14:33.819Z,68.94
2022-10-23T15:18:42.112Z,69.08
2022-10-23T15:22:49.659Z,69.21
2022-10-23T15:27:00.415Z,69.50
2022-10-23T15:31:27.531Z,69.54
2022-10-23T15:35:37.003Z,69.61
2022-10-23T15:39:48.007Z,69.72
2022-10-23T15:44:00.359Z,70.05
2022-10-23T15:48:10.131Z,70.29
2022-10-23T15:52:17.851Z,70.36
2022-10-23T15:56:26.261Z,70.30
2022-10-23T16:00:36.715Z,70.47
2022-10-23T16:04:46.230Z,70.73
2022-10-23T16:08:55.315Z,71.07
2022-10-23T16:13:02.896Z,71.18
2022-10-23T16:17:11.131Z,71.34
2022-10-23T16:21:22.463Z,71.52
2022-10-23T16:29:45.034Z,72.18
2022-10-23T16:33:53.889Z,72.21
2022-10-23T16:38:01.969Z,72.56
2022-10-23T16:42:10.068Z,72.94
2022-10-23T16:46:20.023Z,73.32
2022-10-23T16:50:27.556Z,73.59
2022-10-23T16:54:35.718Z,74.09
2022-10-23T16:58:43.924Z,74.39
2022-10-23T17:02:53.145Z,74.73
2022-10-23T17:07:01.310Z,74.75
2022-10-23T17:11:13.528Z,74.92
2022-10-23T17:15:24.071Z,75.59
2022-10-23T17:19:44.251Z,75.63
2022-10-23T17:23:53.966Z,75.62
2022-10-23T17:28:02.067Z,75.76
2022-10-23T17:32:10.508Z,76.30
2022-10-23T17:36:19.779Z,76.65
2022-10-23T17:40:31.493Z,76.48
2022-10-23T17:44:39.438Z,77.28
2022-10-23T17:48:47.609Z,77.16
2022-10-23T17:52:55.314Z,77.64
2022-10-23T17:57:03.101Z,77.80
2022-10-23T18:01:13.080Z,78.38
2022-10-23T18:05:22.264Z,78.53
2022-10-23T18:09:30.973Z,78.50
2022-10-23T18:13:40.205Z,78.23
2022-10-23T18:17:47.979Z,78.23
2022-10-23T18:21:56.658Z,78.20
2022-10-23T18:26:06.634Z,78.18
2022-10-23T18:30:17.592Z,78.18
2022-10-23T18:34:29.439Z,78.13
2022-10-23T18:38:37.905Z,78.00
2022-10-23T18:42:46.392Z,78.01
2022-10-23T18:46:55.591Z,77.87
2022-10-23T18:51:04.547Z,78.23
2022-10-23T18:55:15.284Z,78.36
2022-10-23T18:59:27.696Z,78.17
2022-10-23T19:03:36.839Z,78.18
2022-10-23T19:07:47.532Z,78.23
2022-10-23T19:11:55.858Z,78.30
2022-10-23T19:16:05.498Z,78.27
2022-10-23T19:20:15.729Z,78.19
2022-10-23T19:24:26.032Z,78.13
2022-10-23T19:28:37.640Z,78.31
2022-10-23T19:32:49.829Z,78.04
2022-10-23T19:36:59.142Z,78.11
2022-10-23T19:41:07.508Z,77.98
2022-10-23T19:45:19.768Z,78.06
2022-10-23T19:49:27.595Z,77.88
2022-10-23T19:53:37.246Z,77.68
2022-10-23T19:57:46.779Z,77.69
2022-10-23T20:01:56.434Z,77.41
2022-10-23T20:06:04.268Z,77.33
2022-10-23T20:10:13.129Z,77.15
2022-10-23T20:14:21.359Z,77.21
2022-10-23T20:18:30.177Z,77.32
2022-10-23T20:22:40.622Z,77.15
2022-10-23T20:26:53.859Z,77.51
2022-10-23T20:31:03.432Z,77.31
2022-10-23T20:35:13.087Z,77.48
2022-10-23T20:39:22.338Z,77.70
2022-10-23T20:43:32.354Z,77.61
2022-10-23T20:47:42.442Z,77.78
2022-10-23T20:51:55.216Z,77.75
2022-10-23T20:56:05.408Z,77.60
2022-10-23T21:00:15.605Z,77.79
2022-10-23T21:04:25.498Z,77.64
2022-10-23T21:08:33.286Z,77.67
2022-10-23T21:12:41.342Z,77.68
2022-10-23T21:16:49.782Z,77.80
2022-10-23T21:20:58.366Z,77.51
2022-10-23T21:25:07.637Z,77.67
2022-10-23T21:29:19.716Z,77.74
2022-10-23T21:33:29.566Z,77.56
2022-10-23T21:37:37.611Z,77.64
2022-10-23T21:41:45.625Z,77.57
2022-10-23T21:45:56.752Z,77.59
2022-10-23T21:50:07.874Z,77.59
2022-10-23T21:54:16.392Z,77.47
2022-10-23T21:58:24.333Z,77.57
2022-10-23T22:02:32.192Z,77.36
2022-10-23T22:06:42.037Z,77.41
2022-10-23T22:10:50.694Z,77.23
2022-10-23T22:14:58.615Z,77.24
2022-10-23T22:19:07.058Z,77.44
2022-10-23T22:23:14.563Z,77.17
2022-10-23T22:27:23.573Z,77.44
2022-10-23T22:31:33.359Z,77.25
2022-10-23T22:35:41.174Z,77.49
2022-10-23T22:39:49.630Z,77.48
2022-10-23T22:44:01.665Z,77.73
2022-10-23T22:48:10.081Z,77.91
2022-10-23T22:52:18.302Z,77.98
2022-10-23T22:56:29.974Z,78.06
2022-10-23T23:00:41.280Z,78.21
2022-10-23T23:04:52.021Z,78.32
2022-10-23T23:09:00.361Z,78.16
2022-10-23T23:13:09.132Z,78.32
2022-10-23T23:17:17.162Z,78.19
2022-10-23T23:21:25.688Z,78.43
2022-10-23T23:25:33.646Z,78.06
2022-10-23T23:29:44.231Z,78.18
2022-10-23T23:33:52.143Z,78.20
2022-10-23T23:38:00.085Z,78.26
2022-10-23T23:42:08.380Z,78.35
2022-10-23T23:46:16.619Z,78.10
2022-10-23T23:50:25.134Z,78.34
2022-10-23T23:54:33.510Z,78.14
2022-10-23T23:58:41.510Z,78.20
